Search for airport 
image banner adimage banner adimage banner ad
image banner ad

KNXP - Twentynine Palms Self

Located in Twentynine Palms, United States

ICAO - NXP, IATA -

Data provided by Airmate  

General information

Coordinates: N34°17'46" W116°9'44"
Elevation is 2051 feet MSL.
Magnetic variation is 14° East
View others Airports in California

Operational data

Special qualification required
Current time UTC:
Current local time:
Weather
METAR: KNXP 240756Z AUTO 29004KT 10SM SCT100 23/16 A3003 RMK AO2 SLP133 T02330156 403610228
TAF: TAF KNXP 2321/2421 25012KT 9999 VCTS FEW050 SCT110 621509 622401 QNH2995INS FM240130 28010KT 9999 SCT110 QNH2996INS BECMG 2408/2410 28008KT 9999 FEW080 QNH3000INS BECMG 2414/2416 VRB06KT 9999 SKC QNH2994INS T33/2322Z T22/2413Z
View NOTAMs / SUP AIP / TFR affecting this airport [VIEW]
Communications frequencies: [VIEW]

Runways:

RWY identifierQFULength (ft)Width (ft)SurfaceLDA (ft)
108015150OTHER
288015150OTHER

Airport contact information

Address: Twentynine Palms United States

Satellite view of KNXP